createdAt,value
2023-11-07T00:00:13.696Z,1.70
2023-11-07T00:00:55.880Z,1.60
2023-11-07T00:01:38.062Z,1.88
2023-11-07T00:02:26.081Z,1.60
2023-11-07T00:03:09.464Z,1.55
2023-11-07T00:03:51.901Z,1.67
2023-11-07T00:04:34.207Z,1.80
2023-11-07T00:05:16.490Z,1.65
2023-11-07T00:05:58.805Z,1.52
2023-11-07T00:06:44.722Z,1.83
2023-11-07T00:07:27.507Z,1.52
2023-11-07T00:08:09.687Z,1.88
2023-11-07T00:08:52.598Z,1.60
2023-11-07T00:09:35.257Z,2.00
2023-11-07T00:10:17.762Z,2.30
2023-11-07T00:10:59.928Z,1.60
2023-11-07T00:11:42.192Z,1.75
2023-11-07T00:12:24.391Z,1.40
2023-11-07T00:13:06.748Z,1.70
2023-11-07T00:13:49.438Z,1.70
2023-11-07T00:14:31.920Z,1.70
2023-11-07T00:15:15.097Z,1.88
2023-11-07T00:15:57.402Z,2.00
2023-11-07T00:16:40.596Z,1.80
2023-11-07T00:17:22.760Z,1.67
2023-11-07T00:18:05.086Z,1.70
2023-11-07T00:18:48.404Z,1.80
2023-11-07T00:19:30.837Z,1.60
2023-11-07T00:20:12.974Z,1.50
2023-11-07T00:20:55.378Z,1.95
2023-11-07T00:21:37.904Z,2.05
2023-11-07T00:22:20.133Z,1.40
2023-11-07T00:23:02.275Z,1.48
2023-11-07T00:23:44.733Z,1.50
2023-11-07T00:24:27.139Z,1.30
2023-11-07T00:25:09.520Z,1.35
2023-11-07T00:25:54.166Z,1.60
2023-11-07T00:26:36.697Z,1.63
2023-11-07T00:27:19.815Z,1.70
2023-11-07T00:28:04.011Z,1.45
2023-11-07T00:28:46.193Z,1.38
2023-11-07T00:29:31.945Z,1.30
2023-11-07T00:30:14.161Z,1.48
2023-11-07T00:30:56.602Z,1.85
2023-11-07T00:31:39.277Z,1.40
2023-11-07T00:32:22.149Z,1.70
2023-11-07T00:33:05.724Z,1.70
2023-11-07T00:33:48.118Z,1.90
2023-11-07T00:34:30.625Z,1.80
2023-11-07T00:35:12.870Z,1.40
2023-11-07T00:35:55.066Z,1.80
2023-11-07T00:36:37.248Z,1.40
2023-11-07T00:37:19.656Z,1.25
2023-11-07T00:38:01.855Z,1.50
2023-11-07T00:38:45.691Z,1.50
2023-11-07T00:39:27.922Z,1.40
2023-11-07T00:40:10.990Z,1.55
2023-11-07T00:40:53.318Z,1.70
2023-11-07T00:41:35.782Z,1.75
2023-11-07T00:42:17.963Z,1.58
2023-11-07T00:43:00.280Z,1.60
2023-11-07T00:43:42.722Z,1.70
2023-11-07T00:44:24.855Z,1.50
2023-11-07T00:45:07.674Z,1.60
2023-11-07T00:45:49.910Z,1.70
2023-11-07T00:46:32.156Z,1.75
2023-11-07T00:47:16.114Z,2.03
2023-11-07T00:47:58.680Z,1.80
2023-11-07T00:48:41.000Z,2.00
2023-11-07T00:49:23.212Z,2.10
2023-11-07T00:50:06.257Z,2.17
2023-11-07T00:50:48.531Z,1.90
2023-11-07T00:51:30.794Z,1.50
2023-11-07T00:52:13.048Z,1.38
2023-11-07T00:52:55.264Z,1.50
2023-11-07T00:53:37.694Z,1.40
2023-11-07T00:54:19.862Z,2.17
2023-11-07T00:55:02.022Z,1.80
2023-11-07T00:55:44.297Z,1.63
2023-11-07T00:56:26.708Z,1.70
2023-11-07T00:57:10.689Z,1.60
2023-11-07T00:57:52.913Z,2.05
2023-11-07T00:58:35.069Z,2.10
2023-11-07T00:59:19.462Z,2.00
2023-11-07T01:00:01.776Z,2.15
2023-11-07T01:00:44.126Z,2.05
2023-11-07T01:01:27.030Z,2.05
2023-11-07T01:02:09.743Z,1.70
2023-11-07T01:02:52.063Z,1.50
2023-11-07T01:03:34.404Z,1.80
2023-11-07T01:04:16.869Z,1.60
2023-11-07T01:04:59.148Z,1.80
2023-11-07T01:05:41.763Z,1.88
2023-11-07T01:06:24.038Z,1.63
2023-11-07T01:07:06.258Z,1.50
2023-11-07T01:07:48.966Z,1.60
2023-11-07T01:08:31.136Z,1.70
2023-11-07T01:09:14.033Z,1.50
2023-11-07T01:09:56.266Z,1.50
2023-11-07T01:10:38.634Z,1.70
2023-11-07T01:11:20.896Z,1.65
2023-11-07T01:12:03.089Z,1.60
2023-11-07T01:12:45.695Z,1.67
2023-11-07T01:13:29.153Z,1.80
2023-11-07T01:14:13.873Z,1.70
2023-11-07T01:14:56.104Z,1.50
2023-11-07T01:15:38.331Z,1.80
2023-11-07T01:16:21.136Z,1.77
2023-11-07T01:17:03.815Z,1.80
2023-11-07T01:17:46.079Z,1.30
2023-11-07T01:18:28.914Z,1.60
2023-11-07T01:19:11.509Z,1.65
2023-11-07T01:19:53.838Z,1.60
2023-11-07T01:20:36.895Z,1.40
2023-11-07T01:21:19.126Z,1.67
2023-11-07T01:22:01.282Z,2.20
2023-11-07T01:22:45.725Z,1.90
2023-11-07T01:23:27.995Z,1.33
2023-11-07T01:24:11.295Z,1.40
2023-11-07T01:24:53.742Z,1.60
2023-11-07T01:25:35.876Z,1.90
2023-11-07T01:26:18.068Z,1.98
2023-11-07T01:27:00.223Z,1.30
2023-11-07T01:27:43.121Z,1.33
2023-11-07T01:28:26.546Z,1.48
2023-11-07T01:29:08.823Z,1.50
2023-11-07T01:29:51.767Z,1.80
2023-11-07T01:30:34.322Z,1.37
2023-11-07T01:31:16.753Z,1.30
2023-11-07T01:31:58.903Z,1.30
2023-11-07T01:32:43.953Z,1.40
2023-11-07T01:33:26.683Z,1.50
2023-11-07T01:34:09.804Z,1.45
2023-11-07T01:34:53.849Z,1.50
2023-11-07T01:35:36.062Z,1.90
2023-11-07T01:36:18.322Z,1.50
2023-11-07T01:37:00.752Z,1.40
2023-11-07T01:37:42.907Z,1.20
2023-11-07T01:38:26.395Z,1.30
2023-11-07T01:39:09.763Z,1.50
2023-11-07T01:39:52.028Z,1.50
2023-11-07T01:40:34.610Z,1.40
2023-11-07T01:41:16.782Z,1.70
2023-11-07T01:41:59.087Z,1.90
2023-11-07T01:42:51.795Z,1.90
2023-11-07T01:43:34.000Z,1.60
2023-11-07T01:44:16.159Z,2.10
2023-11-07T01:45:00.820Z,2.40
2023-11-07T01:45:43.132Z,1.60
2023-11-07T01:46:25.299Z,1.50
2023-11-07T01:47:08.212Z,1.65
2023-11-07T01:47:51.351Z,1.55
2023-11-07T01:48:33.964Z,1.40
2023-11-07T01:49:16.186Z,1.60
2023-11-07T01:49:59.116Z,1.70
2023-11-07T01:50:42.915Z,1.60
2023-11-07T01:51:25.230Z,1.50
2023-11-07T01:52:07.908Z,2.17
2023-11-07T01:52:50.147Z,1.60
2023-11-07T01:53:33.043Z,1.50
2023-11-07T01:54:15.210Z,1.65
2023-11-07T01:54:57.733Z,1.48
2023-11-07T01:55:40.274Z,1.65
2023-11-07T01:56:24.232Z,1.60
2023-11-07T01:57:06.860Z,1.70
2023-11-07T01:57:49.229Z,1.70
2023-11-07T01:58:31.841Z,1.50
2023-11-07T01:59:14.104Z,1.70
2023-11-07T01:59:56.762Z,1.88
2023-11-07T02:00:41.047Z,1.80
2023-11-07T02:01:24.856Z,2.30
2023-11-07T02:02:11.330Z,1.73
2023-11-07T02:02:54.014Z,1.63
2023-11-07T02:03:38.180Z,1.52
2023-11-07T02:04:22.259Z,2.30
2023-11-07T02:05:04.897Z,2.20
2023-11-07T02:05:47.120Z,1.60
2023-11-07T02:06:29.248Z,1.60
2023-11-07T02:07:11.832Z,1.50
2023-11-07T02:07:54.209Z,1.40
2023-11-07T02:08:39.059Z,1.50
2023-11-07T02:09:23.815Z,1.60
2023-11-07T02:10:10.761Z,1.67
2023-11-07T02:10:53.226Z,1.73
2023-11-07T02:11:36.792Z,1.60
2023-11-07T02:12:18.993Z,1.63
2023-11-07T02:13:01.128Z,1.70
2023-11-07T02:13:48.091Z,1.30
2023-11-07T02:14:30.856Z,1.35
2023-11-07T02:15:30.832Z,2.05
2023-11-07T02:16:12.973Z,1.70
2023-11-07T02:16:55.241Z,1.40
2023-11-07T02:17:37.855Z,1.40
2023-11-07T02:18:20.227Z,1.58
2023-11-07T02:19:02.741Z,1.85
2023-11-07T02:19:44.926Z,1.90
2023-11-07T02:20:27.114Z,1.98
2023-11-07T02:21:09.336Z,1.90
2023-11-07T02:21:54.060Z,1.55
2023-11-07T02:22:36.398Z,1.65
2023-11-07T02:23:18.822Z,1.58
2023-11-07T02:24:01.053Z,1.65
2023-11-07T02:24:43.304Z,1.50
2023-11-07T02:25:25.812Z,1.50
2023-11-07T02:26:07.943Z,1.60
2023-11-07T02:26:54.861Z,1.88
2023-11-07T02:27:37.026Z,1.92
2023-11-07T02:28:19.170Z,1.65
2023-11-07T02:29:01.324Z,1.70
2023-11-07T02:29:44.004Z,1.60
2023-11-07T02:30:28.982Z,1.77
2023-11-07T02:31:12.288Z,2.05
2023-11-07T02:31:54.597Z,1.90
2023-11-07T02:32:36.921Z,1.77
2023-11-07T02:33:21.201Z,1.43
2023-11-07T02:34:07.647Z,1.45
2023-11-07T02:34:49.991Z,1.77
2023-11-07T02:35:34.632Z,1.65
2023-11-07T02:36:16.837Z,1.58
2023-11-07T02:36:59.215Z,1.67
2023-11-07T02:37:42.359Z,1.60
2023-11-07T02:38:24.918Z,1.50
2023-11-07T02:39:08.860Z,1.40
2023-11-07T02:39:51.017Z,1.80
2023-11-07T02:40:33.151Z,1.73
2023-11-07T02:41:15.661Z,1.50
2023-11-07T02:41:57.988Z,1.35
2023-11-07T02:42:40.262Z,1.38
2023-11-07T02:43:22.435Z,1.70
2023-11-07T02:44:04.821Z,1.60
2023-11-07T02:44:47.163Z,1.80
2023-11-07T02:45:30.088Z,1.92
2023-11-07T02:46:12.778Z,1.90
2023-11-07T02:46:54.932Z,1.70
2023-11-07T02:47:41.975Z,2.00
2023-11-07T02:48:25.432Z,1.70
2023-11-07T02:49:08.459Z,1.60
2023-11-07T02:49:50.834Z,1.63
2023-11-07T02:50:33.279Z,1.80
2023-11-07T02:51:20.977Z,1.77
2023-11-07T02:52:03.129Z,1.80
2023-11-07T02:52:48.478Z,1.90
2023-11-07T02:53:33.280Z,1.80
2023-11-07T02:54:18.292Z,1.40
2023-11-07T02:55:01.778Z,1.70
2023-11-07T02:55:44.001Z,1.70
2023-11-07T02:56:26.955Z,1.90
2023-11-07T02:57:09.134Z,1.70
2023-11-07T02:57:54.832Z,1.50
2023-11-07T02:58:37.887Z,1.50
2023-11-07T02:59:20.059Z,1.40
2023-11-07T03:00:02.799Z,1.70
2023-11-07T03:00:47.879Z,2.28
2023-11-07T03:01:32.461Z,1.80
2023-11-07T03:02:18.408Z,1.40
2023-11-07T03:03:00.886Z,1.52
2023-11-07T03:03:44.156Z,1.70
2023-11-07T03:04:26.625Z,1.73
2023-11-07T03:05:09.927Z,1.60
2023-11-07T03:05:52.197Z,1.80
2023-11-07T03:06:37.312Z,1.83
2023-11-07T03:07:19.771Z,1.80
2023-11-07T03:08:03.012Z,1.77
2023-11-07T03:08:45.813Z,2.10
2023-11-07T03:09:28.029Z,1.58
2023-11-07T03:10:10.837Z,1.50
2023-11-07T03:10:53.324Z,1.48
2023-11-07T03:11:36.036Z,1.50
2023-11-07T03:12:18.261Z,1.95
2023-11-07T03:13:01.749Z,1.75
2023-11-07T03:13:43.925Z,2.05
2023-11-07T03:14:26.125Z,1.80
2023-11-07T03:15:08.703Z,1.70
2023-11-07T03:15:51.181Z,2.58
2023-11-07T03:16:36.162Z,2.00
2023-11-07T03:17:18.361Z,1.75
2023-11-07T03:18:01.068Z,1.70
2023-11-07T03:18:43.517Z,1.92
2023-11-07T03:19:25.867Z,1.90
2023-11-07T03:20:09.064Z,1.80
2023-11-07T03:20:51.241Z,1.80
2023-11-07T03:21:33.417Z,1.77
2023-11-07T03:22:15.913Z,1.67
2023-11-07T03:22:58.078Z,1.90
2023-11-07T03:23:40.269Z,1.58
2023-11-07T03:24:24.958Z,1.80
2023-11-07T03:25:07.243Z,1.48
2023-11-07T03:25:49.456Z,1.52
2023-11-07T03:26:31.842Z,1.80
2023-11-07T03:27:14.203Z,1.73
2023-11-07T03:27:56.344Z,1.80
2023-11-07T03:28:40.656Z,1.98
2023-11-07T03:29:22.915Z,2.00
2023-11-07T03:30:07.027Z,1.63
2023-11-07T03:30:50.129Z,1.92
2023-11-07T03:31:32.374Z,1.70
2023-11-07T03:32:14.972Z,1.60
2023-11-07T03:32:57.611Z,1.65
2023-11-07T03:33:40.098Z,2.10
2023-11-07T03:34:25.919Z,1.80
2023-11-07T03:35:08.227Z,1.90
2023-11-07T03:35:50.812Z,1.90
2023-11-07T03:36:33.005Z,2.00
2023-11-07T03:37:15.196Z,2.00
2023-11-07T03:37:57.929Z,1.88
2023-11-07T03:38:41.365Z,1.67
2023-11-07T03:39:23.875Z,1.80
2023-11-07T03:40:06.834Z,1.70
2023-11-07T03:40:49.043Z,1.77
2023-11-07T03:41:31.209Z,1.70
2023-11-07T03:42:13.690Z,1.75
2023-11-07T03:42:55.824Z,1.65
2023-11-07T03:43:38.260Z,1.85
2023-11-07T03:44:20.854Z,2.00
2023-11-07T03:45:03.077Z,2.08
2023-11-07T03:45:45.745Z,2.08
2023-11-07T03:46:27.968Z,2.20
2023-11-07T03:47:12.916Z,2.03
2023-11-07T03:47:55.390Z,1.70
2023-11-07T03:48:37.724Z,2.00
2023-11-07T03:49:19.992Z,1.83
2023-11-07T03:50:02.173Z,2.13
2023-11-07T03:50:44.391Z,1.70
2023-11-07T03:51:26.961Z,1.70
2023-11-07T03:52:09.147Z,1.88
2023-11-07T03:52:51.744Z,2.30
2023-11-07T03:53:34.042Z,2.30
2023-11-07T03:54:16.327Z,2.00
2023-11-07T03:54:58.888Z,2.13
2023-11-07T03:55:41.090Z,2.00
2023-11-07T03:56:24.069Z,1.80
2023-11-07T03:57:06.498Z,2.00
2023-11-07T03:57:49.112Z,2.10
2023-11-07T03:58:31.295Z,2.00
2023-11-07T03:59:14.071Z,1.70
2023-11-07T03:59:56.365Z,1.90
2023-11-07T04:00:38.959Z,2.07
2023-11-07T04:01:21.216Z,1.67
2023-11-07T04:02:06.068Z,1.77
2023-11-07T04:02:48.388Z,2.05
2023-11-07T04:03:30.980Z,1.80
2023-11-07T04:04:13.235Z,1.77
2023-11-07T04:04:55.422Z,2.00
2023-11-07T04:05:38.326Z,1.80
2023-11-07T04:06:20.708Z,1.80
2023-11-07T04:07:02.929Z,2.10
2023-11-07T04:07:45.102Z,2.38
2023-11-07T04:08:27.636Z,1.98
2023-11-07T04:09:10.149Z,2.00
2023-11-07T04:09:52.574Z,1.80
2023-11-07T04:10:35.205Z,1.70
2023-11-07T04:11:18.946Z,1.80
2023-11-07T04:12:01.139Z,1.70
2023-11-07T04:12:43.289Z,2.10
2023-11-07T04:13:25.794Z,1.75
2023-11-07T04:14:08.011Z,1.75
2023-11-07T04:14:50.623Z,2.03
2023-11-07T04:15:33.210Z,2.10
2023-11-07T04:16:15.426Z,1.70
2023-11-07T04:16:59.202Z,1.80
2023-11-07T04:17:42.173Z,1.80
2023-11-07T04:18:25.306Z,1.80
2023-11-07T04:19:08.013Z,2.00
2023-11-07T04:19:50.200Z,2.13
2023-11-07T04:20:34.378Z,1.92
2023-11-07T04:21:17.319Z,1.85
2023-11-07T04:21:59.932Z,1.80
2023-11-07T04:22:42.375Z,1.70
2023-11-07T04:23:24.913Z,1.80
2023-11-07T04:24:07.337Z,2.00
2023-11-07T04:24:49.946Z,1.80
2023-11-07T04:25:32.841Z,1.70
2023-11-07T04:26:14.988Z,1.80
2023-11-07T04:26:58.154Z,1.80
2023-11-07T04:27:40.922Z,1.90
2023-11-07T04:28:23.223Z,2.05
2023-11-07T04:29:05.810Z,2.30
2023-11-07T04:29:47.995Z,2.58
2023-11-07T04:30:30.237Z,1.70
2023-11-07T04:31:13.635Z,1.80
2023-11-07T04:31:55.882Z,2.15
2023-11-07T04:32:39.721Z,2.50
2023-11-07T04:33:22.474Z,2.20
2023-11-07T04:34:04.782Z,1.88
2023-11-07T04:34:49.012Z,1.90
2023-11-07T04:35:31.175Z,1.90
2023-11-07T04:36:14.492Z,2.00
2023-11-07T04:36:57.264Z,1.80
2023-11-07T04:37:39.879Z,1.90
2023-11-07T04:38:22.065Z,1.98
2023-11-07T04:39:04.353Z,2.22
2023-11-07T04:39:46.879Z,2.10
2023-11-07T04:40:29.021Z,2.10
2023-11-07T04:41:13.858Z,2.10
2023-11-07T04:41:56.078Z,2.20
2023-11-07T04:42:38.282Z,2.30
2023-11-07T04:43:23.226Z,2.60
2023-11-07T04:44:06.891Z,2.50
2023-11-07T04:44:49.225Z,2.38
2023-11-07T04:45:32.249Z,2.35
2023-11-07T04:46:15.236Z,2.47
2023-11-07T04:46:58.877Z,2.60
2023-11-07T04:47:41.697Z,2.40
2023-11-07T04:48:24.130Z,2.25
2023-11-07T04:49:08.734Z,2.08
2023-11-07T04:49:51.881Z,2.80
2023-11-07T04:50:35.813Z,2.45
2023-11-07T04:51:18.873Z,2.10
2023-11-07T04:52:03.238Z,1.90
2023-11-07T04:52:45.900Z,2.45
2023-11-07T04:53:28.904Z,2.15
2023-11-07T04:54:11.098Z,2.55
2023-11-07T04:54:53.370Z,2.55
2023-11-07T04:55:35.978Z,2.55
2023-11-07T04:56:18.156Z,2.50
2023-11-07T04:57:03.365Z,2.60
2023-11-07T04:57:46.423Z,2.58
2023-11-07T04:58:28.994Z,2.47
2023-11-07T04:59:13.264Z,2.65
2023-11-07T04:59:57.064Z,2.65
2023-11-07T05:00:39.413Z,2.20
2023-11-07T05:01:22.873Z,2.40
2023-11-07T05:02:07.372Z,2.50
2023-11-07T05:02:50.977Z,2.17
2023-11-07T05:03:38.857Z,2.50
2023-11-07T05:04:25.215Z,2.47
2023-11-07T05:05:07.934Z,2.50
2023-11-07T05:05:50.362Z,2.70
2023-11-07T05:06:32.901Z,2.40
2023-11-07T05:07:15.198Z,2.20
2023-11-07T05:07:58.075Z,2.50
2023-11-07T05:08:40.367Z,2.10
2023-11-07T05:09:23.417Z,2.53
2023-11-07T05:10:11.336Z,2.20
2023-11-07T05:10:55.756Z,2.33
2023-11-07T05:11:41.007Z,2.80
2023-11-07T05:12:23.183Z,2.92
2023-11-07T05:13:07.672Z,2.45
2023-11-07T05:13:50.166Z,2.17
2023-11-07T05:14:33.909Z,2.20
2023-11-07T05:15:16.167Z,2.10
2023-11-07T05:16:08.835Z,2.20
2023-11-07T05:16:51.102Z,2.50
2023-11-07T05:17:33.953Z,2.63
2023-11-07T05:18:16.424Z,2.33
2023-11-07T05:18:59.314Z,2.53
2023-11-07T05:19:44.245Z,2.50
2023-11-07T05:20:26.910Z,2.40
2023-11-07T05:21:09.150Z,2.20
2023-11-07T05:21:51.386Z,2.30
2023-11-07T05:22:33.873Z,2.20
2023-11-07T05:23:16.050Z,2.20
2023-11-07T05:23:58.263Z,2.45
2023-11-07T05:24:41.237Z,2.80
2023-11-07T05:25:23.905Z,2.53
2023-11-07T05:26:07.469Z,2.42
2023-11-07T05:26:49.980Z,2.30
2023-11-07T05:27:32.382Z,2.10
2023-11-07T05:28:14.626Z,2.10
2023-11-07T05:28:57.216Z,2.33
2023-11-07T05:29:39.481Z,2.20
2023-11-07T05:30:21.797Z,2.50
2023-11-07T05:31:04.044Z,2.30
2023-11-07T05:31:48.076Z,2.30
2023-11-07T05:32:30.404Z,2.15
2023-11-07T05:33:13.994Z,2.40
2023-11-07T05:33:56.347Z,2.30
2023-11-07T05:34:41.174Z,2.22
2023-11-07T05:35:23.434Z,2.50
2023-11-07T05:36:06.100Z,2.30
2023-11-07T05:36:48.438Z,2.30
2023-11-07T05:37:30.968Z,2.30
2023-11-07T05:38:16.365Z,2.40
2023-11-07T05:38:59.372Z,2.60
2023-11-07T05:39:44.930Z,2.20
2023-11-07T05:40:27.175Z,2.00
2023-11-07T05:41:09.504Z,2.00
2023-11-07T05:41:52.363Z,2.33
2023-11-07T05:42:34.888Z,2.60
2023-11-07T05:43:18.207Z,2.08
2023-11-07T05:44:00.393Z,2.30
2023-11-07T05:44:43.235Z,2.22
2023-11-07T05:45:26.985Z,2.40
2023-11-07T05:46:10.021Z,2.40
2023-11-07T05:46:54.997Z,2.33
2023-11-07T05:47:37.658Z,2.15
2023-11-07T05:48:25.325Z,2.20
2023-11-07T05:49:09.070Z,2.20
2023-11-07T05:49:52.581Z,2.30
2023-11-07T05:50:35.264Z,2.50
2023-11-07T05:51:17.502Z,2.20
2023-11-07T05:52:00.038Z,2.35
2023-11-07T05:52:42.455Z,2.40
2023-11-07T05:53:25.202Z,2.20
2023-11-07T05:54:09.108Z,2.65
2023-11-07T05:54:51.309Z,2.25
2023-11-07T05:55:33.526Z,2.00
2023-11-07T05:56:16.678Z,2.15
2023-11-07T05:56:59.075Z,2.10
2023-11-07T05:57:41.776Z,1.80
2023-11-07T05:58:24.163Z,2.20
2023-11-07T05:59:08.507Z,2.10
2023-11-07T05:59:51.116Z,2.00
2023-11-07T06:00:35.139Z,1.92
2023-11-07T06:01:17.541Z,2.20
2023-11-07T06:01:59.934Z,1.95
2023-11-07T06:02:42.230Z,1.90
2023-11-07T06:03:25.179Z,1.70
2023-11-07T06:04:08.715Z,1.70
2023-11-07T06:04:50.991Z,2.20
2023-11-07T06:05:35.337Z,1.70
2023-11-07T06:06:18.183Z,1.60
2023-11-07T06:07:00.985Z,1.55
2023-11-07T06:07:43.293Z,1.65
2023-11-07T06:08:25.821Z,1.75
2023-11-07T06:09:08.436Z,1.90
2023-11-07T06:09:50.964Z,1.48
2023-11-07T06:10:33.148Z,1.48
2023-11-07T06:11:17.191Z,1.42
2023-11-07T06:12:00.366Z,1.40
2023-11-07T06:12:43.182Z,1.20
2023-11-07T06:13:25.380Z,1.40
2023-11-07T06:14:07.565Z,1.40
2023-11-07T06:14:50.250Z,1.60
2023-11-07T06:15:36.025Z,1.40
2023-11-07T06:16:18.205Z,1.50
2023-11-07T06:17:00.407Z,1.70
2023-11-07T06:17:42.706Z,1.50
2023-11-07T06:18:25.664Z,1.40
2023-11-07T06:19:12.140Z,1.40
2023-11-07T06:19:54.327Z,1.35
2023-11-07T06:20:36.544Z,1.20
2023-11-07T06:21:19.006Z,1.77
2023-11-07T06:22:01.297Z,1.52
2023-11-07T06:22:43.487Z,1.60
2023-11-07T06:23:25.959Z,1.30
2023-11-07T06:24:08.377Z,1.50
2023-11-07T06:24:53.211Z,1.48
2023-11-07T06:25:38.246Z,1.60
2023-11-07T06:26:22.534Z,1.30
2023-11-07T06:27:05.137Z,1.38
2023-11-07T06:27:48.934Z,1.85
2023-11-07T06:28:31.213Z,1.80
2023-11-07T06:29:16.513Z,1.88
2023-11-07T06:30:00.075Z,1.50
2023-11-07T06:30:42.970Z,1.45
2023-11-07T06:31:31.301Z,1.70
2023-11-07T06:32:15.051Z,1.50
2023-11-07T06:32:58.211Z,1.83
2023-11-07T06:33:40.678Z,1.90
2023-11-07T06:34:27.320Z,1.55
2023-11-07T06:35:09.852Z,1.30
2023-11-07T06:35:52.201Z,1.60
2023-11-07T06:36:34.500Z,1.60
2023-11-07T06:37:17.984Z,1.70
2023-11-07T06:38:00.156Z,1.95
2023-11-07T06:38:42.419Z,1.42
2023-11-07T06:39:25.080Z,1.65
2023-11-07T06:40:17.308Z,1.85
2023-11-07T06:41:01.311Z,1.70
2023-11-07T06:41:46.243Z,1.60
2023-11-07T06:42:28.480Z,1.40
2023-11-07T06:43:10.921Z,1.67
2023-11-07T06:43:54.046Z,1.60
2023-11-07T06:44:36.317Z,1.33
2023-11-07T06:45:18.551Z,1.20
2023-11-07T06:46:01.361Z,1.70
2023-11-07T06:46:46.217Z,1.38
2023-11-07T06:47:28.463Z,1.40
2023-11-07T06:48:13.431Z,1.50
2023-11-07T06:48:58.777Z,1.90
2023-11-07T06:49:41.662Z,1.65
2023-11-07T06:50:24.025Z,1.60
2023-11-07T06:51:06.394Z,1.40
2023-11-07T06:51:48.906Z,1.40
2023-11-07T06:52:31.090Z,1.40
2023-11-07T06:53:13.243Z,1.50
2023-11-07T06:53:55.910Z,1.38
2023-11-07T06:54:38.162Z,1.40
2023-11-07T06:55:24.561Z,1.42
2023-11-07T06:56:07.362Z,1.60
2023-11-07T06:56:50.347Z,1.27
2023-11-07T06:57:32.532Z,1.30
2023-11-07T06:58:15.040Z,1.30
2023-11-07T06:58:57.257Z,1.70
2023-11-07T06:59:39.498Z,1.30
2023-11-07T07:00:28.048Z,1.40
2023-11-07T07:01:12.135Z,1.20
2023-11-07T07:01:54.264Z,1.38
2023-11-07T07:02:37.249Z,2.08
2023-11-07T07:03:19.585Z,1.90
2023-11-07T07:04:02.042Z,1.45
2023-11-07T07:04:44.462Z,1.60
2023-11-07T07:05:27.230Z,1.60
2023-11-07T07:06:10.193Z,1.50
2023-11-07T07:06:55.158Z,1.40
2023-11-07T07:07:37.336Z,1.65
2023-11-07T07:08:20.006Z,1.50
2023-11-07T07:09:02.238Z,1.58
2023-11-07T07:09:44.527Z,2.00
2023-11-07T07:10:26.759Z,1.85
2023-11-07T07:11:08.906Z,1.73
2023-11-07T07:11:52.365Z,1.65
2023-11-07T07:12:34.960Z,1.77
2023-11-07T07:13:17.566Z,1.70
2023-11-07T07:14:00.241Z,1.52
2023-11-07T07:14:42.628Z,1.80
2023-11-07T07:15:24.960Z,1.70
2023-11-07T07:16:07.631Z,1.70
2023-11-07T07:16:50.074Z,1.50
2023-11-07T07:17:32.283Z,1.80
2023-11-07T07:18:19.567Z,1.77
2023-11-07T07:19:07.544Z,1.80
2023-11-07T07:19:50.145Z,1.88
2023-11-07T07:20:37.787Z,1.92
2023-11-07T07:21:25.047Z,1.70
2023-11-07T07:22:10.379Z,1.20
2023-11-07T07:22:54.969Z,1.40
2023-11-07T07:23:37.366Z,1.65
2023-11-07T07:24:22.797Z,1.50
2023-11-07T07:25:06.920Z,1.48
2023-11-07T07:25:49.442Z,1.65
2023-11-07T07:26:34.183Z,1.60
2023-11-07T07:27:18.972Z,1.20
2023-11-07T07:28:01.196Z,1.30
2023-11-07T07:28:43.404Z,1.30
2023-11-07T07:29:27.288Z,1.30
2023-11-07T07:30:10.585Z,1.20
2023-11-07T07:30:53.178Z,1.20
2023-11-07T07:31:38.634Z,1.10
2023-11-07T07:32:21.484Z,1.15
2023-11-07T07:33:07.294Z,1.10
2023-11-07T07:33:50.192Z,1.10
2023-11-07T07:34:33.543Z,1.10
2023-11-07T07:35:16.553Z,1.00
2023-11-07T07:36:04.067Z,1.50
2023-11-07T07:36:48.118Z,0.90
2023-11-07T07:37:30.724Z,0.90
2023-11-07T07:38:12.892Z,1.10
2023-11-07T07:38:55.172Z,1.00
2023-11-07T07:39:38.763Z,1.10
2023-11-07T07:40:30.225Z,1.20
2023-11-07T07:41:14.197Z,1.15
2023-11-07T07:41:57.553Z,0.95
2023-11-07T07:42:40.181Z,1.00
2023-11-07T07:43:23.815Z,1.02
2023-11-07T07:44:06.187Z,0.90
2023-11-07T07:44:49.986Z,1.10
2023-11-07T07:45:34.207Z,1.00
2023-11-07T07:46:18.563Z,0.98
2023-11-07T07:47:01.853Z,1.00
2023-11-07T07:47:47.290Z,1.10
2023-11-07T07:48:30.743Z,1.10
2023-11-07T07:49:13.244Z,1.38
2023-11-07T07:49:56.559Z,1.30
2023-11-07T07:50:43.408Z,1.30
2023-11-07T07:51:25.946Z,1.30
2023-11-07T07:52:11.536Z,1.38
2023-11-07T07:52:57.392Z,1.30
2023-11-07T07:53:40.147Z,1.33
2023-11-07T07:54:51.878Z,1.40
2023-11-07T07:55:35.113Z,1.40
2023-11-07T07:56:19.651Z,1.48
2023-11-07T07:57:02.466Z,1.60
2023-11-07T07:57:45.107Z,1.10
2023-11-07T07:58:27.579Z,1.40
2023-11-07T07:59:10.181Z,1.40
2023-11-07T07:59:52.406Z,1.40
2023-11-07T08:00:35.029Z,1.10
2023-11-07T08:01:21.389Z,1.48
2023-11-07T08:02:07.619Z,1.40
2023-11-07T08:02:50.193Z,1.65
2023-11-07T08:03:33.879Z,1.40
2023-11-07T08:04:16.341Z,1.30
2023-11-07T08:05:00.004Z,1.40
2023-11-07T08:05:46.352Z,1.40
2023-11-07T08:06:31.167Z,1.30
2023-11-07T08:07:17.717Z,1.30
2023-11-07T08:08:00.433Z,1.13
2023-11-07T08:08:42.632Z,1.00
2023-11-07T08:09:26.707Z,1.08
2023-11-07T08:10:17.467Z,1.20
2023-11-07T08:10:59.955Z,1.20
2023-11-07T08:11:43.832Z,1.25
2023-11-07T08:12:26.104Z,1.30
2023-11-07T08:13:09.043Z,1.20
2023-11-07T08:13:51.637Z,1.10
2023-11-07T08:14:34.032Z,1.10
2023-11-07T08:15:17.899Z,1.10
2023-11-07T08:16:00.121Z,1.00
2023-11-07T08:16:42.700Z,1.10
2023-11-07T08:17:25.786Z,1.10
2023-11-07T08:18:09.412Z,1.10
2023-11-07T08:18:55.068Z,1.17
2023-11-07T08:19:37.296Z,1.10
2023-11-07T08:20:24.050Z,0.90
2023-11-07T08:21:06.535Z,1.27
2023-11-07T08:21:49.910Z,1.38
2023-11-07T08:22:32.229Z,1.10
2023-11-07T08:23:14.455Z,1.08
2023-11-07T08:23:57.137Z,1.20
2023-11-07T08:24:40.078Z,1.50
2023-11-07T08:25:25.069Z,1.20
2023-11-07T08:26:07.248Z,1.00
2023-11-07T08:26:49.561Z,1.10
2023-11-07T08:27:32.411Z,1.13
2023-11-07T08:28:14.992Z,1.00
2023-11-07T08:28:57.162Z,1.08
2023-11-07T08:29:39.356Z,1.00
2023-11-07T08:30:24.601Z,1.10
2023-11-07T08:31:07.402Z,1.30
2023-11-07T08:31:49.935Z,1.25
2023-11-07T08:32:32.348Z,1.10
2023-11-07T08:33:15.323Z,1.10
2023-11-07T08:34:00.042Z,1.00
2023-11-07T08:34:43.107Z,1.00
2023-11-07T08:35:25.307Z,1.00
2023-11-07T08:36:10.946Z,1.02
2023-11-07T08:37:01.927Z,1.00
2023-11-07T08:37:55.340Z,1.20
2023-11-07T08:38:40.907Z,1.10
2023-11-07T08:39:28.409Z,1.00
2023-11-07T08:40:11.489Z,1.00
2023-11-07T08:40:53.750Z,1.05
2023-11-07T08:41:36.483Z,1.13
2023-11-07T08:42:19.026Z,1.10
2023-11-07T08:43:01.273Z,1.30
2023-11-07T08:43:43.805Z,1.38
2023-11-07T08:44:26.151Z,1.20
2023-11-07T08:45:09.453Z,1.10
2023-11-07T08:45:53.957Z,1.10
2023-11-07T08:46:36.103Z,0.90
2023-11-07T08:47:19.352Z,1.10
2023-11-07T08:48:01.718Z,1.20
2023-11-07T08:48:45.749Z,1.20
2023-11-07T08:49:28.138Z,1.05
2023-11-07T08:50:12.089Z,1.20
2023-11-07T08:50:54.282Z,1.30
2023-11-07T08:51:36.503Z,1.10
2023-11-07T08:52:18.695Z,1.10
2023-11-07T08:53:06.175Z,1.10
2023-11-07T08:53:48.548Z,0.90
2023-11-07T08:54:31.031Z,1.00
2023-11-07T08:55:14.541Z,1.10
2023-11-07T08:55:56.724Z,1.23
2023-11-07T08:56:38.977Z,1.10
2023-11-07T08:57:21.274Z,1.27
2023-11-07T08:58:04.408Z,1.40
2023-11-07T08:58:46.868Z,1.17
2023-11-07T08:59:29.013Z,1.40
2023-11-07T09:00:13.199Z,1.10
2023-11-07T09:00:58.326Z,1.20
2023-11-07T09:01:41.500Z,1.10
2023-11-07T09:02:24.197Z,1.20
2023-11-07T09:03:06.584Z,1.10
2023-11-07T09:03:51.708Z,1.20
2023-11-07T09:04:34.011Z,1.20
2023-11-07T09:05:17.730Z,1.17
2023-11-07T09:06:00.291Z,1.40
2023-11-07T09:06:42.631Z,1.20
2023-11-07T09:07:24.980Z,1.17
2023-11-07T09:08:07.178Z,1.00
2023-11-07T09:08:49.352Z,1.20
2023-11-07T09:09:31.676Z,1.20
2023-11-07T09:10:14.175Z,1.20
2023-11-07T09:10:56.390Z,1.52
2023-11-07T09:11:38.564Z,1.70
2023-11-07T09:12:20.745Z,1.38
2023-11-07T09:13:04.658Z,1.00
2023-11-07T09:13:47.254Z,1.10
2023-11-07T09:14:30.261Z,1.10
2023-11-07T09:15:13.192Z,1.10
2023-11-07T09:15:56.030Z,0.95
2023-11-07T09:16:38.266Z,1.00
2023-11-07T09:17:21.226Z,1.08
2023-11-07T09:18:03.449Z,1.13
2023-11-07T09:18:45.872Z,1.23
2023-11-07T09:19:28.141Z,1.20
2023-11-07T09:20:13.194Z,1.10
2023-11-07T09:20:55.685Z,1.10
2023-11-07T09:21:39.357Z,1.15
2023-11-07T09:22:22.174Z,1.30
2023-11-07T09:23:05.382Z,1.10
2023-11-07T09:23:47.553Z,1.10
2023-11-07T09:24:30.075Z,1.30
2023-11-07T09:25:15.354Z,1.40
2023-11-07T09:25:57.553Z,1.00
2023-11-07T09:26:39.709Z,1.00
2023-11-07T09:27:22.173Z,1.23
2023-11-07T09:28:05.235Z,1.58
2023-11-07T09:28:47.437Z,1.17
2023-11-07T09:29:29.691Z,1.02
2023-11-07T09:30:12.980Z,1.20
2023-11-07T09:30:57.212Z,1.20
2023-11-07T09:31:39.444Z,1.10
2023-11-07T09:32:21.830Z,1.17
2023-11-07T09:33:07.652Z,1.10
2023-11-07T09:33:51.195Z,1.10
2023-11-07T09:34:33.516Z,1.23